sensor_id;sensor_type;location;lat;lon;timestamp;pressure;altitude;pressure_sealevel;temperature;humidity
22872;BME280;11603;44.910;8.630;2023-02-15T00:01:29;102078.75;;;7.28;100.00
22872;BME280;11603;44.910;8.630;2023-02-15T00:03:54;102072.59;;;7.26;100.00
22872;BME280;11603;44.910;8.630;2023-02-15T00:06:20;102076.19;;;7.23;100.00
22872;BME280;11603;44.910;8.630;2023-02-15T00:08:46;102074.41;;;7.23;100.00
22872;BME280;11603;44.910;8.630;2023-02-15T00:11:13;102073.63;;;7.20;100.00
22872;BME280;11603;44.910;8.630;2023-02-15T00:13:39;102078.88;;;7.23;100.00
22872;BME280;11603;44.910;8.630;2023-02-15T00:16:11;102075.13;;;7.32;100.00
22872;BME280;11603;44.910;8.630;2023-02-15T00:18:37;102075.81;;;7.38;100.00
22872;BME280;11603;44.910;8.630;2023-02-15T00:21:07;102077.53;;;7.41;100.00
22872;BME280;11603;44.910;8.630;2023-02-15T00:23:33;102076.06;;;7.29;100.00
22872;BME280;11603;44.910;8.630;2023-02-15T00:26:09;102076.28;;;7.20;100.00
22872;BME280;11603;44.910;8.630;2023-02-15T00:28:35;102075.50;;;7.16;100.00
22872;BME280;11603;44.910;8.630;2023-02-15T00:31:05;102068.44;;;7.14;100.00
22872;BME280;11603;44.910;8.630;2023-02-15T00:33:34;102064.94;;;7.12;100.00
22872;BME280;11603;44.910;8.630;2023-02-15T00:36:01;102072.03;;;7.13;100.00
22872;BME280;11603;44.910;8.630;2023-02-15T00:38:27;102070.25;;;7.13;100.00
22872;BME280;11603;44.910;8.630;2023-02-15T00:40:55;102069.69;;;7.01;100.00
22872;BME280;11603;44.910;8.630;2023-02-15T00:43:21;102075.16;;;6.93;100.00
22872;BME280;11603;44.910;8.630;2023-02-15T00:45:47;102079.28;;;6.69;100.00
22872;BME280;11603;44.910;8.630;2023-02-15T00:48:13;102078.72;;;6.54;100.00
22872;BME280;11603;44.910;8.630;2023-02-15T00:50:38;102073.47;;;6.51;100.00
22872;BME280;11603;44.910;8.630;2023-02-15T00:53:04;102068.38;;;6.40;100.00
22872;BME280;11603;44.910;8.630;2023-02-15T00:55:30;102070.56;;;6.21;100.00
22872;BME280;11603;44.910;8.630;2023-02-15T00:57:55;102072.34;;;6.21;100.00
22872;BME280;11603;44.910;8.630;2023-02-15T01:00:21;102085.84;;;6.10;100.00
22872;BME280;11603;44.910;8.630;2023-02-15T01:02:47;102079.94;;;5.96;100.00
22872;BME280;11603;44.910;8.630;2023-02-15T01:05:13;102085.38;;;5.88;100.00
22872;BME280;11603;44.910;8.630;2023-02-15T01:07:39;102081.09;;;5.80;100.00
22872;BME280;11603;44.910;8.630;2023-02-15T01:10:06;102081.81;;;5.89;100.00
22872;BME280;11603;44.910;8.630;2023-02-15T01:12:32;102087.19;;;5.85;100.00
22872;BME280;11603;44.910;8.630;2023-02-15T01:14:57;102089.78;;;5.89;100.00
22872;BME280;11603;44.910;8.630;2023-02-15T01:17:24;102082.25;;;5.64;100.00
22872;BME280;11603;44.910;8.630;2023-02-15T01:19:50;102085.03;;;5.58;100.00
22872;BME280;11603;44.910;8.630;2023-02-15T01:22:18;102092.00;;;5.65;100.00
22872;BME280;11603;44.910;8.630;2023-02-15T01:24:44;102083.16;;;5.63;100.00
22872;BME280;11603;44.910;8.630;2023-02-15T01:27:09;102073.78;;;5.42;100.00
22872;BME280;11603;44.910;8.630;2023-02-15T01:29:35;102077.34;;;5.41;100.00
22872;BME280;11603;44.910;8.630;2023-02-15T01:32:00;102074.63;;;5.45;100.00
22872;BME280;11603;44.910;8.630;2023-02-15T01:34:26;102079.84;;;5.50;100.00
22872;BME280;11603;44.910;8.630;2023-02-15T01:36:51;102077.34;;;5.42;100.00
22872;BME280;11603;44.910;8.630;2023-02-15T01:39:17;102073.09;;;5.31;100.00
22872;BME280;11603;44.910;8.630;2023-02-15T01:41:42;102078.41;;;5.31;100.00
22872;BME280;11603;44.910;8.630;2023-02-15T01:47:14;102079.47;;;5.21;100.00
22872;BME280;11603;44.910;8.630;2023-02-15T01:49:42;102070.47;;;5.29;100.00
22872;BME280;11603;44.910;8.630;2023-02-15T01:52:11;102068.59;;;5.36;100.00
22872;BME280;11603;44.910;8.630;2023-02-15T01:54:40;102073.53;;;5.05;100.00
22872;BME280;11603;44.910;8.630;2023-02-15T01:57:10;102063.81;;;5.02;100.00
22872;BME280;11603;44.910;8.630;2023-02-15T01:59:38;102061.09;;;5.08;100.00
22872;BME280;11603;44.910;8.630;2023-02-15T02:02:07;102054.25;;;4.95;100.00
22872;BME280;11603;44.910;8.630;2023-02-15T02:04:53;102061.31;;;4.93;100.00
22872;BME280;11603;44.910;8.630;2023-02-15T02:07:22;102054.78;;;5.16;100.00
22872;BME280;11603;44.910;8.630;2023-02-15T02:09:49;102053.97;;;5.12;100.00
22872;BME280;11603;44.910;8.630;2023-02-15T02:12:16;102056.72;;;5.04;100.00
22872;BME280;11603;44.910;8.630;2023-02-15T02:14:44;102055.69;;;5.13;100.00
22872;BME280;11603;44.910;8.630;2023-02-15T02:20:06;102049.09;;;5.38;100.00
22872;BME280;11603;44.910;8.630;2023-02-15T02:28:38;102054.31;;;4.89;100.00
22872;BME280;11603;44.910;8.630;2023-02-15T02:34:25;102057.84;;;4.90;100.00
22872;BME280;11603;44.910;8.630;2023-02-15T02:39:50;102058.25;;;5.19;100.00
22872;BME280;11603;44.910;8.630;2023-02-15T02:42:36;102052.75;;;5.31;100.00
22872;BME280;11603;44.910;8.630;2023-02-15T02:45:13;102050.91;;;5.35;100.00
22872;BME280;11603;44.910;8.630;2023-02-15T02:47:51;102038.44;;;5.40;100.00
22872;BME280;11603;44.910;8.630;2023-02-15T02:50:23;102045.53;;;5.39;100.00
22872;BME280;11603;44.910;8.630;2023-02-15T02:52:51;102046.44;;;5.38;100.00
22872;BME280;11603;44.910;8.630;2023-02-15T02:55:23;102049.97;;;5.39;100.00
22872;BME280;11603;44.910;8.630;2023-02-15T02:57:57;102046.47;;;5.35;100.00
22872;BME280;11603;44.910;8.630;2023-02-15T03:00:25;102042.13;;;5.33;100.00
22872;BME280;11603;44.910;8.630;2023-02-15T03:02:59;102040.47;;;5.26;100.00
22872;BME280;11603;44.910;8.630;2023-02-15T03:05:32;102039.66;;;5.22;100.00
22872;BME280;11603;44.910;8.630;2023-02-15T03:07:59;102039.72;;;5.18;100.00
22872;BME280;11603;44.910;8.630;2023-02-15T03:10:32;102035.50;;;5.07;100.00
22872;BME280;11603;44.910;8.630;2023-02-15T03:13:00;102028.53;;;4.99;100.00
22872;BME280;11603;44.910;8.630;2023-02-15T03:15:30;102028.69;;;4.91;100.00
22872;BME280;11603;44.910;8.630;2023-02-15T03:18:22;102031.41;;;4.85;100.00
22872;BME280;11603;44.910;8.630;2023-02-15T03:20:51;102036.75;;;4.84;100.00
22872;BME280;11603;44.910;8.630;2023-02-15T03:23:21;102038.53;;;4.82;100.00
22872;BME280;11603;44.910;8.630;2023-02-15T03:25:59;102030.69;;;4.76;100.00
22872;BME280;11603;44.910;8.630;2023-02-15T03:28:41;102024.53;;;4.72;100.00
22872;BME280;11603;44.910;8.630;2023-02-15T03:31:09;102028.06;;;4.71;100.00
22872;BME280;11603;44.910;8.630;2023-02-15T03:33:42;102025.56;;;4.65;100.00
22872;BME280;11603;44.910;8.630;2023-02-15T03:39:10;102017.47;;;4.71;100.00
22872;BME280;11603;44.910;8.630;2023-02-15T03:41:42;102017.44;;;4.76;100.00
22872;BME280;11603;44.910;8.630;2023-02-15T03:44:27;102017.44;;;4.74;100.00
22872;BME280;11603;44.910;8.630;2023-02-15T03:46:58;102015.78;;;4.67;100.00
22872;BME280;11603;44.910;8.630;2023-02-15T03:52:02;102020.41;;;4.54;100.00
22872;BME280;11603;44.910;8.630;2023-02-15T03:54:31;102022.19;;;4.52;100.00
22872;BME280;11603;44.910;8.630;2023-02-15T03:57:12;102031.03;;;4.51;100.00
22872;BME280;11603;44.910;8.630;2023-02-15T03:59:58;102037.19;;;4.55;100.00
22872;BME280;11603;44.910;8.630;2023-02-15T04:05:16;102035.44;;;4.51;100.00
22872;BME280;11603;44.910;8.630;2023-02-15T04:07:41;102031.00;;;4.53;100.00
22872;BME280;11603;44.910;8.630;2023-02-15T04:10:07;102028.44;;;4.50;100.00
22872;BME280;11603;44.910;8.630;2023-02-15T04:13:01;102025.16;;;4.30;100.00
22872;BME280;11603;44.910;8.630;2023-02-15T04:15:27;102032.25;;;4.28;100.00
22872;BME280;11603;44.910;8.630;2023-02-15T04:18:11;102026.81;;;4.37;100.00
22872;BME280;11603;44.910;8.630;2023-02-15T04:20:36;102024.09;;;4.41;100.00
22872;BME280;11603;44.910;8.630;2023-02-15T04:23:20;102023.28;;;4.39;100.00
22872;BME280;11603;44.910;8.630;2023-02-15T04:26:04;102038.25;;;4.40;100.00
22872;BME280;11603;44.910;8.630;2023-02-15T04:28:30;102035.59;;;4.40;100.00
22872;BME280;11603;44.910;8.630;2023-02-15T04:30:56;102026.75;;;4.41;100.00
22872;BME280;11603;44.910;8.630;2023-02-15T04:33:22;102031.16;;;4.44;100.00
22872;BME280;11603;44.910;8.630;2023-02-15T04:35:47;102039.97;;;4.44;100.00
22872;BME280;11603;44.910;8.630;2023-02-15T04:38:13;102026.66;;;4.49;100.00
22872;BME280;11603;44.910;8.630;2023-02-15T04:40:38;102027.56;;;4.48;100.00
22872;BME280;11603;44.910;8.630;2023-02-15T04:43:03;102021.38;;;4.47;100.00
22872;BME280;11603;44.910;8.630;2023-02-15T04:45:29;102025.00;;;4.42;100.00
22872;BME280;11603;44.910;8.630;2023-02-15T04:47:55;102022.41;;;4.37;100.00
22872;BME280;11603;44.910;8.630;2023-02-15T04:50:20;102014.47;;;4.36;100.00
22872;BME280;11603;44.910;8.630;2023-02-15T04:52:46;102025.13;;;4.33;100.00
22872;BME280;11603;44.910;8.630;2023-02-15T04:55:12;102025.06;;;4.36;100.00
22872;BME280;11603;44.910;8.630;2023-02-15T04:57:37;102019.69;;;4.40;100.00
22872;BME280;11603;44.910;8.630;2023-02-15T05:00:03;102023.28;;;4.39;100.00
22872;BME280;11603;44.910;8.630;2023-02-15T05:02:29;102032.34;;;4.21;100.00
22872;BME280;11603;44.910;8.630;2023-02-15T05:04:54;102031.38;;;4.29;100.00
22872;BME280;11603;44.910;8.630;2023-02-15T05:07:20;102032.25;;;4.29;100.00
22872;BME280;11603;44.910;8.630;2023-02-15T05:09:45;102020.78;;;4.29;100.00
22872;BME280;11603;44.910;8.630;2023-02-15T05:12:11;102018.06;;;4.33;100.00
22872;BME280;11603;44.910;8.630;2023-02-15T05:14:36;102025.09;;;4.34;100.00
22872;BME280;11603;44.910;8.630;2023-02-15T05:17:02;102026.06;;;4.27;100.00
22872;BME280;11603;44.910;8.630;2023-02-15T05:19:28;102037.97;;;3.94;100.00
22872;BME280;11603;44.910;8.630;2023-02-15T05:21:54;102033.59;;;3.89;100.00
22872;BME280;11603;44.910;8.630;2023-02-15T05:24:20;102045.97;;;3.90;100.00
22872;BME280;11603;44.910;8.630;2023-02-15T05:27:04;102046.84;;;3.89;100.00
22872;BME280;11603;44.910;8.630;2023-02-15T05:29:48;102039.66;;;3.98;100.00
22872;BME280;11603;44.910;8.630;2023-02-15T05:32:14;102040.47;;;4.03;100.00
22872;BME280;11603;44.910;8.630;2023-02-15T05:34:39;102035.13;;;4.11;100.00
22872;BME280;11603;44.910;8.630;2023-02-15T05:37:05;102041.41;;;4.01;100.00
22872;BME280;11603;44.910;8.630;2023-02-15T05:39:30;102044.06;;;4.01;100.00
22872;BME280;11603;44.910;8.630;2023-02-15T05:41:58;102048.47;;;4.02;100.00
22872;BME280;11603;44.910;8.630;2023-02-15T05:44:24;102044.94;;;4.01;100.00
22872;BME280;11603;44.910;8.630;2023-02-15T05:46:50;102051.13;;;4.00;100.00
22872;BME280;11603;44.910;8.630;2023-02-15T05:49:16;102043.13;;;4.03;100.00
22872;BME280;11603;44.910;8.630;2023-02-15T05:51:41;102046.72;;;3.99;100.00
22872;BME280;11603;44.910;8.630;2023-02-15T05:54:07;102045.97;;;3.88;100.00
22872;BME280;11603;44.910;8.630;2023-02-15T05:56:32;102049.59;;;3.78;100.00
22872;BME280;11603;44.910;8.630;2023-02-15T05:58:58;102052.41;;;3.66;100.00
22872;BME280;11603;44.910;8.630;2023-02-15T06:01:23;102048.94;;;3.58;100.00
22872;BME280;11603;44.910;8.630;2023-02-15T06:03:49;102063.09;;;3.54;100.00
22872;BME280;11603;44.910;8.630;2023-02-15T06:06:15;102058.69;;;3.56;100.00
22872;BME280;11603;44.910;8.630;2023-02-15T06:08:40;102060.41;;;3.60;100.00
22872;BME280;11603;44.910;8.630;2023-02-15T06:11:06;102063.88;;;3.65;100.00
22872;BME280;11603;44.910;8.630;2023-02-15T06:13:33;102060.31;;;3.67;100.00
22872;BME280;11603;44.910;8.630;2023-02-15T06:15:59;102070.00;;;3.71;100.00
22872;BME280;11603;44.910;8.630;2023-02-15T06:18:25;102064.72;;;3.68;100.00
22872;BME280;11603;44.910;8.630;2023-02-15T06:20:50;102063.84;;;3.68;100.00
22872;BME280;11603;44.910;8.630;2023-02-15T06:23:16;102064.72;;;3.68;100.00
22872;BME280;11603;44.910;8.630;2023-02-15T06:25:42;102069.13;;;3.69;100.00
22872;BME280;11603;44.910;8.630;2023-02-15T06:28:07;102075.31;;;3.67;100.00
22872;BME280;11603;44.910;8.630;2023-02-15T06:30:33;102085.88;;;3.70;100.00
22872;BME280;11603;44.910;8.630;2023-02-15T06:32:58;102075.34;;;3.64;100.00
22872;BME280;11603;44.910;8.630;2023-02-15T06:35:24;102074.47;;;3.65;100.00
22872;BME280;11603;44.910;8.630;2023-02-15T06:37:49;102081.50;;;3.66;100.00
22872;BME280;11603;44.910;8.630;2023-02-15T06:40:15;102086.81;;;3.66;100.00
22872;BME280;11603;44.910;8.630;2023-02-15T06:42:42;102090.28;;;3.68;100.00
22872;BME280;11603;44.910;8.630;2023-02-15T06:45:08;102090.28;;;3.68;100.00
22872;BME280;11603;44.910;8.630;2023-02-15T06:47:34;102092.09;;;3.64;100.00
22872;BME280;11603;44.910;8.630;2023-02-15T06:49:59;102093.00;;;3.62;100.00
22872;BME280;11603;44.910;8.630;2023-02-15T06:52:25;102092.97;;;3.65;100.00
22872;BME280;11603;44.910;8.630;2023-02-15T06:54:50;102092.88;;;3.75;100.00
22872;BME280;11603;44.910;8.630;2023-02-15T06:57:16;102093.66;;;3.85;100.00
22872;BME280;11603;44.910;8.630;2023-02-15T06:59:41;102097.97;;;3.95;100.00
22872;BME280;11603;44.910;8.630;2023-02-15T07:02:08;102097.91;;;4.01;100.00
22872;BME280;11603;44.910;8.630;2023-02-15T07:04:34;102099.66;;;4.01;100.00
22872;BME280;11603;44.910;8.630;2023-02-15T07:06:59;102096.09;;;4.03;100.00
22872;BME280;11603;44.910;8.630;2023-02-15T07:09:25;102103.06;;;4.13;100.00
22872;BME280;11603;44.910;8.630;2023-02-15T07:11:51;102098.59;;;4.18;100.00
22872;BME280;11603;44.910;8.630;2023-02-15T07:14:35;102101.25;;;4.15;100.00
22872;BME280;11603;44.910;8.630;2023-02-15T07:17:00;102096.06;;;4.08;100.00
22872;BME280;11603;44.910;8.630;2023-02-15T07:19:26;102106.84;;;3.91;100.00
22872;BME280;11603;44.910;8.630;2023-02-15T07:21:51;102098.84;;;3.93;100.00
22872;BME280;11603;44.910;8.630;2023-02-15T07:24:17;102093.66;;;3.83;100.00
22872;BME280;11603;44.910;8.630;2023-02-15T07:26:42;102100.72;;;3.83;100.00
22872;BME280;11603;44.910;8.630;2023-02-15T07:29:08;102102.31;;;4.02;100.00
22872;BME280;11603;44.910;8.630;2023-02-15T07:31:34;102112.69;;;4.19;100.00
22872;BME280;11603;44.910;8.630;2023-02-15T07:34:00;102105.72;;;4.12;100.00
22872;BME280;11603;44.910;8.630;2023-02-15T07:36:25;102103.94;;;4.12;100.00
22872;BME280;11603;44.910;8.630;2023-02-15T07:38:51;102101.19;;;4.20;100.00
22872;BME280;11603;44.910;8.630;2023-02-15T07:41:16;102106.47;;;4.23;100.00
22872;BME280;11603;44.910;8.630;2023-02-15T07:43:43;102092.34;;;4.22;100.00
22872;BME280;11603;44.910;8.630;2023-02-15T07:46:12;102086.94;;;4.33;100.00
22872;BME280;11603;44.910;8.630;2023-02-15T07:48:39;102099.19;;;4.40;100.00
22872;BME280;11603;44.910;8.630;2023-02-15T07:51:06;102094.69;;;4.47;100.00
22872;BME280;11603;44.910;8.630;2023-02-15T07:53:32;102089.28;;;4.54;100.00
22872;BME280;11603;44.910;8.630;2023-02-15T07:55:59;102096.16;;;4.71;100.00
22872;BME280;11603;44.910;8.630;2023-02-15T07:58:25;102084.31;;;4.93;100.00
22872;BME280;11603;44.910;8.630;2023-02-15T08:01:10;102088.41;;;5.13;100.00
22872;BME280;11603;44.910;8.630;2023-02-15T08:03:36;102085.50;;;5.29;100.00
22872;BME280;11603;44.910;8.630;2023-02-15T08:06:01;102082.47;;;5.51;100.00
22872;BME280;11603;44.910;8.630;2023-02-15T08:08:27;102082.28;;;5.62;100.00
22872;BME280;11603;44.910;8.630;2023-02-15T08:11:03;102081.38;;;5.65;100.00
22872;BME280;11603;44.910;8.630;2023-02-15T08:13:50;102086.25;;;5.38;100.00
22872;BME280;11603;44.910;8.630;2023-02-15T08:19:02;102086.19;;;5.40;100.00
22872;BME280;11603;44.910;8.630;2023-02-15T08:21:29;102079.47;;;5.21;100.00
22872;BME280;11603;44.910;8.630;2023-02-15T08:23:55;102076.03;;;5.14;100.00
22872;BME280;11603;44.910;8.630;2023-02-15T08:26:22;102075.09;;;5.18;100.00
22872;BME280;11603;44.910;8.630;2023-02-15T08:28:48;102074.06;;;5.27;100.00
22872;BME280;11603;44.910;8.630;2023-02-15T08:31:14;102069.13;;;5.56;100.00
22872;BME280;11603;44.910;8.630;2023-02-15T08:33:41;102069.59;;;5.78;100.00
22872;BME280;11603;44.910;8.630;2023-02-15T08:36:10;102080.66;;;6.03;100.00
22872;BME280;11603;44.910;8.630;2023-02-15T08:38:35;102076.00;;;6.15;100.00
22872;BME280;11603;44.910;8.630;2023-02-15T08:41:19;102080.63;;;6.49;100.00
22872;BME280;11603;44.910;8.630;2023-02-15T08:43:46;102066.00;;;6.68;100.00
22872;BME280;11603;44.910;8.630;2023-02-15T08:46:13;102070.97;;;6.83;100.00
22872;BME280;11603;44.910;8.630;2023-02-15T08:48:39;102073.97;;;6.68;100.00
22872;BME280;11603;44.910;8.630;2023-02-15T08:51:07;102075.13;;;6.56;100.00
22872;BME280;11603;44.910;8.630;2023-02-15T08:53:33;102066.88;;;6.68;100.00
22872;BME280;11603;44.910;8.630;2023-02-15T08:56:00;102074.13;;;6.60;100.00
22872;BME280;11603;44.910;8.630;2023-02-15T08:58:25;102074.09;;;6.63;100.00
22872;BME280;11603;44.910;8.630;2023-02-15T09:00:51;102059.72;;;6.70;100.00
22872;BME280;11603;44.910;8.630;2023-02-15T09:03:17;102061.84;;;6.95;100.00
22872;BME280;11603;44.910;8.630;2023-02-15T09:05:42;102065.81;;;7.12;100.00
22872;BME280;11603;44.910;8.630;2023-02-15T09:08:08;102065.66;;;7.20;100.00
22872;BME280;11603;44.910;8.630;2023-02-15T09:10:33;102058.00;;;7.42;100.00
22872;BME280;11603;44.910;8.630;2023-02-15T09:12:59;102062.69;;;7.66;100.00
22872;BME280;11603;44.910;8.630;2023-02-15T09:15:24;102056.53;;;7.64;100.00
22872;BME280;11603;44.910;8.630;2023-02-15T09:17:50;102054.53;;;7.72;100.00
22872;BME280;11603;44.910;8.630;2023-02-15T09:20:15;102054.13;;;7.86;100.00
22872;BME280;11603;44.910;8.630;2023-02-15T09:22:41;102046.97;;;8.20;100.00
22872;BME280;11603;44.910;8.630;2023-02-15T09:25:06;102049.09;;;8.38;100.00
22872;BME280;11603;44.910;8.630;2023-02-15T09:27:32;102042.84;;;8.69;100.00
22872;BME280;11603;44.910;8.630;2023-02-15T09:29:57;102038.53;;;8.92;100.00
22872;BME280;11603;44.910;8.630;2023-02-15T09:32:22;102038.44;;;9.22;100.00
22872;BME280;11603;44.910;8.630;2023-02-15T09:34:48;102047.28;;;9.50;100.00
22872;BME280;11603;44.910;8.630;2023-02-15T09:37:14;102047.44;;;9.70;100.00
22872;BME280;11603;44.910;8.630;2023-02-15T09:39:42;102042.97;;;9.96;100.00
22872;BME280;11603;44.910;8.630;2023-02-15T09:53:25;102032.88;;;10.52;94.12
22872;BME280;11603;44.910;8.630;2023-02-15T10:01:11;102032.25;;;10.67;92.35
22872;BME280;11603;44.910;8.630;2023-02-15T10:15:04;102023.63;;;11.46;89.20
22872;BME280;11603;44.910;8.630;2023-02-15T10:20:27;102020.97;;;11.86;86.99
22872;BME280;11603;44.910;8.630;2023-02-15T10:25:39;102022.69;;;12.26;85.23
22872;BME280;11603;44.910;8.630;2023-02-15T10:28:15;102015.56;;;12.25;85.06
22872;BME280;11603;44.910;8.630;2023-02-15T10:30:50;102010.88;;;12.49;83.90
22872;BME280;11603;44.910;8.630;2023-02-15T10:36:11;101999.00;;;12.91;82.50
22872;BME280;11603;44.910;8.630;2023-02-15T10:44:29;101997.44;;;13.40;80.49
22872;BME280;11603;44.910;8.630;2023-02-15T10:52:51;101988.81;;;13.68;75.28
22872;BME280;11603;44.910;8.630;2023-02-15T10:58:19;101977.41;;;13.80;73.90
22872;BME280;11603;44.910;8.630;2023-02-15T11:01:13;101963.81;;;13.98;73.23
22872;BME280;11603;44.910;8.630;2023-02-15T11:06:32;101962.13;;;14.29;71.70
22872;BME280;11603;44.910;8.630;2023-02-15T11:09:15;101959.66;;;14.41;71.11
22872;BME280;11603;44.910;8.630;2023-02-15T11:11:45;101951.16;;;14.65;69.75
22872;BME280;11603;44.910;8.630;2023-02-15T11:17:11;101940.53;;;15.07;67.75
22872;BME280;11603;44.910;8.630;2023-02-15T11:19:43;101935.81;;;15.26;67.07
22872;BME280;11603;44.910;8.630;2023-02-15T11:22:13;101928.31;;;15.46;65.23
22872;BME280;11603;44.910;8.630;2023-02-15T11:24:43;101924.25;;;15.54;65.01
22872;BME280;11603;44.910;8.630;2023-02-15T11:27:24;101921.88;;;15.48;63.80
22872;BME280;11603;44.910;8.630;2023-02-15T11:30:25;101911.84;;;15.50;63.85
22872;BME280;11603;44.910;8.630;2023-02-15T11:32:54;101907.00;;;15.71;62.89
22872;BME280;11603;44.910;8.630;2023-02-15T11:35:28;101897.09;;;15.86;61.99
22872;BME280;11603;44.910;8.630;2023-02-15T11:43:48;101890.97;;;16.10;61.30
22872;BME280;11603;44.910;8.630;2023-02-15T11:45:46;101880.44;;;16.20;60.37
22872;BME280;11603;44.910;8.630;2023-02-15T11:48:14;101879.53;;;16.34;59.78
22872;BME280;11603;44.910;8.630;2023-02-15T11:50:41;101882.88;;;16.51;59.25
22872;BME280;11603;44.910;8.630;2023-02-15T11:53:12;101879.47;;;16.62;58.62
22872;BME280;11603;44.910;8.630;2023-02-15T11:55:39;101874.97;;;16.75;57.96
22872;BME280;11603;44.910;8.630;2023-02-15T12:00:58;101865.31;;;16.98;56.89
22872;BME280;11603;44.910;8.630;2023-02-15T12:06:37;101860.41;;;16.90;55.37
22872;BME280;11603;44.910;8.630;2023-02-15T12:11:41;101851.09;;;16.82;54.48
22872;BME280;11603;44.910;8.630;2023-02-15T12:14:09;101843.03;;;16.94;54.13
22872;BME280;11603;44.910;8.630;2023-02-15T12:19:30;101833.56;;;17.27;52.59
22872;BME280;11603;44.910;8.630;2023-02-15T12:21:57;101827.56;;;17.22;51.49
22872;BME280;11603;44.910;8.630;2023-02-15T12:24:28;101828.47;;;17.10;51.39
22872;BME280;11603;44.910;8.630;2023-02-15T12:30:21;101817.88;;;17.32;51.56
22872;BME280;11603;44.910;8.630;2023-02-15T12:32:28;101817.66;;;17.48;51.24
22872;BME280;11603;44.910;8.630;2023-02-15T12:35:01;101803.66;;;17.54;50.87
22872;BME280;11603;44.910;8.630;2023-02-15T12:37:32;101799.78;;;17.58;50.84
22872;BME280;11603;44.910;8.630;2023-02-15T12:40:01;101797.06;;;17.70;50.71
22872;BME280;11603;44.910;8.630;2023-02-15T12:42:41;101788.75;;;17.61;50.40
22872;BME280;11603;44.910;8.630;2023-02-15T12:45:28;101786.16;;;17.47;50.24
22872;BME280;11603;44.910;8.630;2023-02-15T12:50:48;101786.81;;;17.63;50.77
22872;BME280;11603;44.910;8.630;2023-02-15T12:53:32;101777.31;;;17.81;50.46
22872;BME280;11603;44.910;8.630;2023-02-15T12:56:06;101778.72;;;17.87;50.61
22872;BME280;11603;44.910;8.630;2023-02-15T12:58:34;101778.28;;;17.93;50.20
22872;BME280;11603;44.910;8.630;2023-02-15T13:03:35;101759.94;;;17.72;50.09
22872;BME280;11603;44.910;8.630;2023-02-15T13:06:03;101755.25;;;17.74;50.38
22872;BME280;11603;44.910;8.630;2023-02-15T13:08:50;101754.16;;;17.90;50.19
22872;BME280;11603;44.910;8.630;2023-02-15T13:11:26;101739.66;;;18.02;49.99
22872;BME280;11603;44.910;8.630;2023-02-15T13:16:44;101729.53;;;18.16;49.51
22872;BME280;11603;44.910;8.630;2023-02-15T13:19:39;101730.63;;;18.14;49.58
22872;BME280;11603;44.910;8.630;2023-02-15T13:22:10;101726.91;;;18.04;49.84
22872;BME280;11603;44.910;8.630;2023-02-15T13:24:48;101718.59;;;18.18;49.27
22872;BME280;11603;44.910;8.630;2023-02-15T13:27:21;101726.53;;;18.08;49.30
22872;BME280;11603;44.910;8.630;2023-02-15T13:29:53;101725.06;;;18.04;49.57
22872;BME280;11603;44.910;8.630;2023-02-15T13:34:57;101707.84;;;18.40;49.60
22872;BME280;11603;44.910;8.630;2023-02-15T13:40:29;101706.31;;;18.60;48.18
22872;BME280;11603;44.910;8.630;2023-02-15T14:00:15;101678.88;;;19.31;46.36
22872;BME280;11603;44.910;8.630;2023-02-15T14:19:39;101669.88;;;19.53;46.00
22872;BME280;11603;44.910;8.630;2023-02-15T14:22:38;101676.03;;;19.66;45.52
22872;BME280;11603;44.910;8.630;2023-02-15T14:30:29;101666.25;;;19.64;44.87
22872;BME280;11603;44.910;8.630;2023-02-15T14:35:30;101663.09;;;19.48;47.41
22872;BME280;11603;44.910;8.630;2023-02-15T14:43:29;101654.97;;;19.36;46.61
22872;BME280;11603;44.910;8.630;2023-02-15T14:48:48;101652.38;;;19.35;48.11
22872;BME280;11603;44.910;8.630;2023-02-15T14:54:09;101644.59;;;19.30;48.39
22872;BME280;11603;44.910;8.630;2023-02-15T14:56:35;101640.75;;;19.33;48.73
22872;BME280;11603;44.910;8.630;2023-02-15T14:59:20;101639.78;;;19.23;48.81
22872;BME280;11603;44.910;8.630;2023-02-15T15:04:29;101647.34;;;19.19;49.03
22872;BME280;11603;44.910;8.630;2023-02-15T15:07:03;101643.38;;;19.12;48.56
22872;BME280;11603;44.910;8.630;2023-02-15T15:09:35;101640.44;;;19.15;48.53
22872;BME280;11603;44.910;8.630;2023-02-15T15:14:57;101643.25;;;19.14;47.96
22872;BME280;11603;44.910;8.630;2023-02-15T15:23:55;101638.94;;;19.22;47.47
22872;BME280;11603;44.910;8.630;2023-02-15T15:26:42;101631.81;;;19.10;47.34
22872;BME280;11603;44.910;8.630;2023-02-15T15:39:45;101622.31;;;18.93;47.35
22872;BME280;11603;44.910;8.630;2023-02-15T15:45:26;101617.75;;;18.83;47.55
22872;BME280;11603;44.910;8.630;2023-02-15T15:50:30;101621.56;;;18.69;48.25
22872;BME280;11603;44.910;8.630;2023-02-15T15:52:58;101619.00;;;18.68;48.73
22872;BME280;11603;44.910;8.630;2023-02-15T15:55:29;101623.88;;;18.51;50.23
22872;BME280;11603;44.910;8.630;2023-02-15T15:58:02;101622.72;;;18.43;51.15
22872;BME280;11603;44.910;8.630;2023-02-15T16:00:44;101628.00;;;18.33;51.93
22872;BME280;11603;44.910;8.630;2023-02-15T16:03:20;101620.59;;;18.24;51.62
22872;BME280;11603;44.910;8.630;2023-02-15T16:05:46;101621.81;;;18.09;51.52
22872;BME280;11603;44.910;8.630;2023-02-15T16:08:30;101624.72;;;17.95;51.87
22872;BME280;11603;44.910;8.630;2023-02-15T16:10:56;101623.28;;;17.78;52.29
22872;BME280;11603;44.910;8.630;2023-02-15T16:13:21;101620.19;;;17.71;52.69
22872;BME280;11603;44.910;8.630;2023-02-15T16:15:51;101630.06;;;17.60;52.82
22872;BME280;11603;44.910;8.630;2023-02-15T16:18:19;101626.94;;;17.53;51.79
22872;BME280;11603;44.910;8.630;2023-02-15T16:20:53;101630.31;;;17.44;52.49
22872;BME280;11603;44.910;8.630;2023-02-15T16:28:31;101636.91;;;17.16;52.44